createdAt,value
2015-03-25T00:00:11.516Z,94558
2015-03-25T00:00:29.860Z,94547
2015-03-25T00:00:48.252Z,94550
2015-03-25T00:01:06.721Z,94553
2015-03-25T00:01:25.112Z,94550
2015-03-25T00:01:43.661Z,94555
2015-03-25T00:02:02.223Z,94553
2015-03-25T00:02:20.598Z,94547
2015-03-25T00:02:39.194Z,94555
2015-03-25T00:02:57.553Z,94553
2015-03-25T00:03:16.131Z,94544
2015-03-25T00:03:34.538Z,94556
2015-03-25T00:03:52.901Z,94547
2015-03-25T00:04:11.401Z,94553
2015-03-25T00:04:29.854Z,94550
2015-03-25T00:04:48.247Z,94545
2015-03-25T00:05:06.606Z,94553
2015-03-25T00:05:25.137Z,94553
2015-03-25T00:05:43.670Z,94547
2015-03-25T00:06:02.232Z,94559
2015-03-25T00:06:20.826Z,94559
2015-03-25T00:06:39.391Z,94559
2015-03-25T00:06:57.126Z,94556
2015-03-25T00:07:15.704Z,94559
2015-03-25T00:07:34.079Z,94559
2015-03-25T00:07:52.565Z,94556
2015-03-25T00:08:11.018Z,94550
2015-03-25T00:08:29.409Z,94556
2015-03-25T00:08:47.849Z,94553
2015-03-25T00:09:06.287Z,94551
2015-03-25T00:09:24.849Z,94553
2015-03-25T00:09:43.414Z,94556
2015-03-25T00:10:01.945Z,94554
2015-03-25T00:10:20.398Z,94556
2015-03-25T00:10:38.838Z,94554
2015-03-25T00:10:57.432Z,94548
2015-03-25T00:11:15.822Z,94557
2015-03-25T00:11:34.197Z,94562
2015-03-25T00:11:52.699Z,94545
2015-03-25T00:12:11.168Z,94545
2015-03-25T00:12:29.746Z,94546
2015-03-25T00:12:48.108Z,94548
2015-03-25T00:13:06.483Z,94548
2015-03-25T00:13:24.843Z,94548
2015-03-25T00:13:43.486Z,94548
2015-03-25T00:14:01.861Z,94554
2015-03-25T00:14:20.236Z,94554
2015-03-25T00:14:38.770Z,94549
2015-03-25T00:14:57.145Z,94552
2015-03-25T00:15:15.613Z,94552
2015-03-25T00:15:34.129Z,94549
2015-03-25T00:15:52.522Z,94543
2015-03-25T00:16:10.928Z,94538
2015-03-25T00:16:29.334Z,94549
2015-03-25T00:16:47.711Z,94549
2015-03-25T00:17:06.071Z,94555
2015-03-25T00:17:24.446Z,94549
2015-03-25T00:17:42.869Z,94552
2015-03-25T00:18:01.432Z,94544
2015-03-25T00:18:19.869Z,94555
2015-03-25T00:18:38.260Z,94541
2015-03-25T00:18:56.621Z,94541
2015-03-25T00:19:15.121Z,94544
2015-03-25T00:19:33.762Z,94538
2015-03-25T00:19:52.124Z,94535
2015-03-25T00:20:10.718Z,94544
2015-03-25T00:20:29.078Z,94544
2015-03-25T00:20:47.784Z,94549
2015-03-25T00:21:06.377Z,94535
2015-03-25T00:21:24.940Z,94541
2015-03-25T00:21:43.364Z,94535
2015-03-25T00:22:01.895Z,94538
2015-03-25T00:22:20.270Z,94541
2015-03-25T00:22:38.708Z,94535
2015-03-25T00:22:57.195Z,94544
2015-03-25T00:23:15.586Z,94533
2015-03-25T00:23:34.226Z,94550
2015-03-25T00:23:52.602Z,94539
2015-03-25T00:24:11.337Z,94544
2015-03-25T00:24:29.696Z,94539
2015-03-25T00:24:48.293Z,94547
2015-03-25T00:25:06.652Z,94541
2015-03-25T00:25:25.215Z,94541
2015-03-25T00:25:43.777Z,94528
2015-03-25T00:26:02.185Z,94536
2015-03-25T00:26:20.748Z,94539
2015-03-25T00:26:39.107Z,94528
2015-03-25T00:26:57.735Z,94533
2015-03-25T00:27:16.251Z,94539
2015-03-25T00:27:34.735Z,94542
2015-03-25T00:27:53.300Z,94533
2015-03-25T00:28:11.690Z,94533
2015-03-25T00:28:30.050Z,94539
2015-03-25T00:28:48.692Z,94525
2015-03-25T00:29:07.270Z,94531
2015-03-25T00:29:25.630Z,94525
2015-03-25T00:29:44.036Z,94536
2015-03-25T00:30:02.586Z,94534
2015-03-25T00:30:21.148Z,94534
2015-03-25T00:30:39.586Z,94534
2015-03-25T00:30:58.103Z,94539
2015-03-25T00:31:16.681Z,94534
2015-03-25T00:31:35.071Z,94537
2015-03-25T00:31:52.809Z,94540
2015-03-25T00:32:11.168Z,94534
2015-03-25T00:32:29.934Z,94534
2015-03-25T00:32:48.312Z,94537
2015-03-25T00:33:06.874Z,94529
2015-03-25T00:33:25.327Z,94526
2015-03-25T00:33:43.202Z,94537
2015-03-25T00:34:01.657Z,94526
2015-03-25T00:34:20.048Z,94532
2015-03-25T00:34:38.407Z,94535
2015-03-25T00:34:56.784Z,94526
2015-03-25T00:35:15.159Z,94529
2015-03-25T00:35:33.519Z,94526
2015-03-25T00:35:51.974Z,94538
2015-03-25T00:36:10.333Z,94538
2015-03-25T00:36:28.771Z,94535
2015-03-25T00:36:46.943Z,94538
2015-03-25T00:37:05.179Z,94532
2015-03-25T00:37:22.929Z,94535
2015-03-25T00:37:40.679Z,94527
2015-03-25T00:37:59.072Z,94527
2015-03-25T00:38:17.478Z,94529
2015-03-25T00:38:35.869Z,94532
2015-03-25T00:38:54.247Z,94538
2015-03-25T00:39:12.653Z,94535
2015-03-25T00:39:31.043Z,94532
2015-03-25T00:39:49.453Z,94532
2015-03-25T00:40:07.843Z,94538
2015-03-25T00:40:26.234Z,94533
2015-03-25T00:40:44.812Z,94538
2015-03-25T00:41:03.158Z,94538
2015-03-25T00:41:21.517Z,94538
2015-03-25T00:41:40.017Z,94538
2015-03-25T00:41:58.457Z,94544
2015-03-25T00:42:17.019Z,94538
2015-03-25T00:42:35.535Z,94527
2015-03-25T00:42:54.099Z,94538
2015-03-25T00:43:12.584Z,94535
2015-03-25T00:43:30.943Z,94538
2015-03-25T00:43:49.381Z,94541
2015-03-25T00:44:07.962Z,94541
2015-03-25T00:44:26.493Z,94535
2015-03-25T00:44:44.930Z,94538
2015-03-25T00:45:03.418Z,94535
2015-03-25T00:45:22.746Z,94530
2015-03-25T00:45:40.793Z,94532
2015-03-25T00:45:59.154Z,94538
2015-03-25T00:46:17.810Z,94530
2015-03-25T00:46:36.185Z,94532
2015-03-25T00:46:54.750Z,94538
2015-03-25T00:47:13.406Z,94533
2015-03-25T00:47:31.891Z,94533
2015-03-25T00:47:50.437Z,94544
2015-03-25T00:48:08.955Z,94530
2015-03-25T00:48:27.393Z,94538
2015-03-25T00:48:46.611Z,94535
2015-03-25T00:49:06.317Z,94532
2015-03-25T00:49:24.692Z,94541
2015-03-25T00:49:43.146Z,94535
2015-03-25T00:50:01.678Z,94533
2015-03-25T00:50:20.084Z,94530
2015-03-25T00:50:38.522Z,94536
2015-03-25T00:50:56.978Z,94541
2015-03-25T00:51:14.681Z,94533
2015-03-25T00:51:33.071Z,94533
2015-03-25T00:51:51.478Z,94530
2015-03-25T00:52:10.106Z,94536
2015-03-25T00:52:28.449Z,94533
2015-03-25T00:52:46.824Z,94527
2015-03-25T00:53:05.280Z,94533
2015-03-25T00:53:22.983Z,94527
2015-03-25T00:53:41.436Z,94536
2015-03-25T00:53:59.797Z,94533
2015-03-25T00:54:18.266Z,94536
2015-03-25T00:54:36.688Z,94536
2015-03-25T00:54:55.049Z,94531
2015-03-25T00:55:13.440Z,94520
2015-03-25T00:55:32.002Z,94534
2015-03-25T00:55:50.440Z,94537
2015-03-25T00:56:08.895Z,94534
2015-03-25T00:56:27.426Z,94537
2015-03-25T00:56:45.848Z,94534
2015-03-25T00:57:04.242Z,94528
2015-03-25T00:57:22.679Z,94542
2015-03-25T00:57:41.070Z,94531
2015-03-25T00:57:59.635Z,94537
2015-03-25T00:58:18.026Z,94540
2015-03-25T00:58:36.604Z,94534
2015-03-25T00:58:55.135Z,94543
2015-03-25T00:59:13.653Z,94534
2015-03-25T00:59:32.028Z,94546
2015-03-25T00:59:50.575Z,94540
2015-03-25T01:00:09.030Z,94540
2015-03-25T01:00:27.467Z,94540
2015-03-25T01:00:46.061Z,94537
2015-03-25T01:01:04.486Z,94537
2015-03-25T01:01:22.955Z,94534
2015-03-25T01:01:41.533Z,94534
2015-03-25T01:01:59.939Z,94534
2015-03-25T01:02:18.331Z,94537
2015-03-25T01:02:36.768Z,94540
2015-03-25T01:02:55.346Z,94537
2015-03-25T01:03:13.724Z,94540
2015-03-25T01:03:32.318Z,94534
2015-03-25T01:03:50.849Z,94546
2015-03-25T01:04:09.336Z,94549
2015-03-25T01:04:27.820Z,94540
2015-03-25T01:04:45.695Z,94534
2015-03-25T01:05:04.261Z,94532
2015-03-25T01:05:22.839Z,94529
2015-03-25T01:05:40.651Z,94529
2015-03-25T01:05:59.011Z,94534
2015-03-25T01:06:17.403Z,94532
2015-03-25T01:06:35.763Z,94534
2015-03-25T01:06:54.138Z,94529
2015-03-25T01:07:12.546Z,94537
2015-03-25T01:07:31.030Z,94537
2015-03-25T01:07:49.577Z,94532
2015-03-25T01:08:08.330Z,94526
2015-03-25T01:08:26.846Z,94532
2015-03-25T01:08:45.471Z,94532
2015-03-25T01:09:03.877Z,94535
2015-03-25T01:09:22.238Z,94521
2015-03-25T01:09:40.613Z,94526
2015-03-25T01:09:59.332Z,94521
2015-03-25T01:10:17.740Z,94538
2015-03-25T01:10:36.287Z,94524
2015-03-25T01:10:54.803Z,94524
2015-03-25T01:11:13.243Z,94524
2015-03-25T01:11:31.650Z,94527
2015-03-25T01:11:50.040Z,94532
2015-03-25T01:12:08.464Z,94527
2015-03-25T01:12:26.870Z,94535
2015-03-25T01:12:45.324Z,94524
2015-03-25T01:13:03.745Z,94524
2015-03-25T01:13:22.216Z,94532
2015-03-25T01:13:40.669Z,94527
2015-03-25T01:13:59.279Z,94519
2015-03-25T01:14:17.750Z,94532
2015-03-25T01:14:36.157Z,94519
2015-03-25T01:14:54.579Z,94524
2015-03-25T01:15:12.956Z,94530
2015-03-25T01:15:31.377Z,94530
2015-03-25T01:15:49.174Z,94524
2015-03-25T01:16:07.723Z,94527
2015-03-25T01:16:26.208Z,94521
2015-03-25T01:16:44.598Z,94519
2015-03-25T01:17:03.145Z,94524
2015-03-25T01:17:21.522Z,94524
2015-03-25T01:17:40.460Z,94519
2015-03-25T01:17:59.053Z,94530
2015-03-25T01:18:17.509Z,94527
2015-03-25T01:18:35.963Z,94522
2015-03-25T01:18:54.463Z,94522
2015-03-25T01:19:12.872Z,94514
2015-03-25T01:19:31.356Z,94511
2015-03-25T01:19:49.825Z,94522
2015-03-25T01:20:08.200Z,94517
2015-03-25T01:20:26.670Z,94517
2015-03-25T01:20:45.045Z,94519
2015-03-25T01:21:03.795Z,94519
2015-03-25T01:21:22.173Z,94517
2015-03-25T01:21:40.548Z,94517
2015-03-25T01:21:59.016Z,94525
2015-03-25T01:22:17.409Z,94519
2015-03-25T01:22:35.847Z,94522
2015-03-25T01:22:53.675Z,94528
2015-03-25T01:23:12.178Z,94525
2015-03-25T01:23:30.740Z,94525
2015-03-25T01:23:49.225Z,94517
2015-03-25T01:24:07.803Z,94519
2015-03-25T01:24:26.195Z,94512
2015-03-25T01:24:44.914Z,94519
2015-03-25T01:25:03.273Z,94515
2015-03-25T01:25:21.651Z,94515
2015-03-25T01:25:40.183Z,94512
2015-03-25T01:25:58.636Z,94515
2015-03-25T01:26:17.090Z,94509
2015-03-25T01:26:35.449Z,94515
2015-03-25T01:26:54.012Z,94515
2015-03-25T01:27:12.496Z,94515
2015-03-25T01:27:31.154Z,94515
2015-03-25T01:27:49.498Z,94512
2015-03-25T01:28:08.014Z,94515
2015-03-25T01:28:26.642Z,94512
2015-03-25T01:28:45.048Z,94512
2015-03-25T01:29:02.751Z,94509
2015-03-25T01:29:21.316Z,94515
2015-03-25T01:29:39.691Z,94515
2015-03-25T01:29:58.066Z,94512
2015-03-25T01:30:16.522Z,94509
2015-03-25T01:30:34.912Z,94510
2015-03-25T01:30:53.272Z,94512
2015-03-25T01:31:11.881Z,94507
2015-03-25T01:31:30.493Z,94515
2015-03-25T01:31:48.852Z,94510
2015-03-25T01:32:07.399Z,94510
2015-03-25T01:32:25.776Z,94507
2015-03-25T01:32:44.291Z,94510
2015-03-25T01:33:02.666Z,94507
2015-03-25T01:33:21.293Z,94507
2015-03-25T01:33:39.778Z,94502
2015-03-25T01:33:58.231Z,94508
2015-03-25T01:34:16.593Z,94502
2015-03-25T01:34:35.046Z,94508
2015-03-25T01:34:53.421Z,94511
2015-03-25T01:35:12.218Z,94505
2015-03-25T01:35:30.659Z,94506
2015-03-25T01:35:49.237Z,94514
2015-03-25T01:36:07.784Z,94511
2015-03-25T01:36:26.239Z,94517
2015-03-25T01:36:44.614Z,94509
2015-03-25T01:37:03.176Z,94503
2015-03-25T01:37:21.850Z,94500
2015-03-25T01:37:40.257Z,94506
2015-03-25T01:37:58.616Z,94503
2015-03-25T01:38:17.212Z,94506
2015-03-25T01:38:35.852Z,94509
2015-03-25T01:38:54.227Z,94512
2015-03-25T01:39:12.618Z,94512
2015-03-25T01:39:30.995Z,94506
2015-03-25T01:39:49.401Z,94515
2015-03-25T01:40:07.761Z,94509
2015-03-25T01:40:26.264Z,94514
2015-03-25T01:40:44.623Z,94506
2015-03-25T01:41:02.998Z,94514
2015-03-25T01:41:21.625Z,94509
2015-03-25T01:41:40.156Z,94509
2015-03-25T01:41:58.594Z,94517
2015-03-25T01:42:17.018Z,94503
2015-03-25T01:42:35.377Z,94514
2015-03-25T01:42:54.064Z,94512
2015-03-25T01:43:12.533Z,94509
2015-03-25T01:43:31.177Z,94512
2015-03-25T01:43:49.552Z,94514
2015-03-25T01:44:08.083Z,94511
2015-03-25T01:44:26.679Z,94514
2015-03-25T01:44:45.038Z,94498
2015-03-25T01:45:03.460Z,94506
2015-03-25T01:45:21.854Z,94500
2015-03-25T01:45:40.401Z,94506
2015-03-25T01:45:58.932Z,94509
2015-03-25T01:46:17.418Z,94512
2015-03-25T01:46:35.887Z,94509
2015-03-25T01:46:54.340Z,94509
2015-03-25T01:47:12.746Z,94506
2015-03-25T01:47:31.123Z,94509
2015-03-25T01:47:49.811Z,94507
2015-03-25T01:48:08.280Z,94501
2015-03-25T01:48:26.688Z,94510
2015-03-25T01:48:45.282Z,94513
2015-03-25T01:49:03.750Z,94507
2015-03-25T01:49:22.112Z,94505
2015-03-25T01:49:40.487Z,94513
2015-03-25T01:49:59.002Z,94507
2015-03-25T01:50:17.502Z,94507
2015-03-25T01:50:36.099Z,94507
2015-03-25T01:50:54.615Z,94510
2015-03-25T01:51:13.130Z,94504
2015-03-25T01:51:31.585Z,94510
2015-03-25T01:51:50.226Z,94513
2015-03-25T01:52:08.789Z,94510
2015-03-25T01:52:27.462Z,94515
2015-03-25T01:52:46.025Z,94507
2015-03-25T01:53:04.447Z,94507
2015-03-25T01:53:22.872Z,94510
2015-03-25T01:53:41.340Z,94513
2015-03-25T01:53:59.950Z,94499
2015-03-25T01:54:18.356Z,94508
2015-03-25T01:54:36.718Z,94505
2015-03-25T01:54:55.281Z,94505
2015-03-25T01:55:13.718Z,94499
2015-03-25T01:55:32.174Z,94505
2015-03-25T01:55:50.533Z,94510
2015-03-25T01:56:08.924Z,94502
2015-03-25T01:56:27.394Z,94499
2015-03-25T01:56:45.847Z,94502
2015-03-25T01:57:04.238Z,94502
2015-03-25T01:57:22.772Z,94499
2015-03-25T01:57:41.163Z,94496
2015-03-25T01:57:59.647Z,94499
2015-03-25T01:58:18.022Z,94496
2015-03-25T01:58:36.476Z,94508
2015-03-25T01:58:54.836Z,94502
2015-03-25T01:59:13.351Z,94496
2015-03-25T01:59:31.728Z,94496
2015-03-25T01:59:50.088Z,94499
2015-03-25T02:00:08.447Z,94499
2015-03-25T02:00:26.810Z,94496
2015-03-25T02:00:45.200Z,94494
2015-03-25T02:01:03.653Z,94494
2015-03-25T02:01:22.106Z,94494
2015-03-25T02:01:40.500Z,94502
2015-03-25T02:01:58.859Z,94499
2015-03-25T02:02:17.281Z,94505
2015-03-25T02:02:35.735Z,94494
2015-03-25T02:02:54.110Z,94494
2015-03-25T02:03:12.532Z,94496
2015-03-25T02:03:30.942Z,94491
2015-03-25T02:03:49.363Z,94494
2015-03-25T02:04:07.863Z,94488
2015-03-25T02:04:26.272Z,94494
2015-03-25T02:04:44.740Z,94491
2015-03-25T02:05:03.334Z,94491
2015-03-25T02:05:21.803Z,94486
2015-03-25T02:05:40.165Z,94486
2015-03-25T02:05:58.697Z,94491
2015-03-25T02:06:17.243Z,94491
2015-03-25T02:06:38.792Z,94491
2015-03-25T02:06:57.199Z,94494
2015-03-25T02:07:15.620Z,94494
2015-03-25T02:07:34.232Z,94497
2015-03-25T02:07:52.685Z,94491
2015-03-25T02:08:11.107Z,94486
2015-03-25T02:08:29.515Z,94489
2015-03-25T02:08:47.890Z,94494
2015-03-25T02:09:06.468Z,94491
2015-03-25T02:09:25.062Z,94489
2015-03-25T02:09:43.440Z,94491
2015-03-25T02:10:02.049Z,94500
2015-03-25T02:10:20.471Z,94500
2015-03-25T02:10:38.927Z,94489
2015-03-25T02:10:57.412Z,94489
2015-03-25T02:11:15.896Z,94491
2015-03-25T02:11:34.320Z,94494
2015-03-25T02:11:52.711Z,94494
2015-03-25T02:12:11.070Z,94497
2015-03-25T02:12:29.447Z,94486
2015-03-25T02:12:48.088Z,94489
2015-03-25T02:13:06.447Z,94495
2015-03-25T02:13:24.869Z,94495
2015-03-25T02:13:43.230Z,94486
2015-03-25T02:14:01.793Z,94489
2015-03-25T02:14:20.246Z,94478
2015-03-25T02:14:38.623Z,94492
2015-03-25T02:14:57.248Z,94492
2015-03-25T02:15:15.717Z,94486
2015-03-25T02:15:34.282Z,94480
2015-03-25T02:15:52.673Z,94483
2015-03-25T02:16:11.298Z,94472
2015-03-25T02:16:29.676Z,94480
2015-03-25T02:16:48.035Z,94486
2015-03-25T02:17:06.410Z,94475
2015-03-25T02:17:24.785Z,94472
2015-03-25T02:17:43.318Z,94483
2015-03-25T02:18:01.850Z,94478
2015-03-25T02:18:20.225Z,94478
2015-03-25T02:18:38.726Z,94478
2015-03-25T02:18:57.351Z,94478
2015-03-25T02:19:15.897Z,94481
2015-03-25T02:19:34.588Z,94472
2015-03-25T02:19:53.119Z,94469
2015-03-25T02:20:11.713Z,94475
2015-03-25T02:20:29.481Z,94472
2015-03-25T02:20:48.137Z,94467
2015-03-25T02:21:06.715Z,94467
2015-03-25T02:21:25.293Z,94472
2015-03-25T02:21:43.842Z,94467
2015-03-25T02:22:01.779Z,94472
2015-03-25T02:22:20.170Z,94467
2015-03-25T02:22:38.595Z,94467
2015-03-25T02:22:57.111Z,94472
2015-03-25T02:23:15.673Z,94470
2015-03-25T02:23:34.034Z,94464
2015-03-25T02:23:52.394Z,94464
2015-03-25T02:24:10.972Z,94461
2015-03-25T02:24:29.378Z,94467
2015-03-25T02:24:47.803Z,94464
2015-03-25T02:25:06.225Z,94461
2015-03-25T02:25:24.866Z,94467
2015-03-25T02:25:43.508Z,94464
2015-03-25T02:26:01.899Z,94464
2015-03-25T02:26:20.352Z,94467
2015-03-25T02:26:38.699Z,94464
2015-03-25T02:26:57.371Z,94470
2015-03-25T02:27:15.730Z,94467
2015-03-25T02:27:34.106Z,94462
2015-03-25T02:27:52.809Z,94476
2015-03-25T02:28:11.340Z,94473
2015-03-25T02:28:29.747Z,94473
2015-03-25T02:28:48.171Z,94473
2015-03-25T02:29:06.609Z,94476
2015-03-25T02:29:25.093Z,94479
2015-03-25T02:29:43.549Z,94470
2015-03-25T02:30:01.924Z,94470
2015-03-25T02:30:20.299Z,94473
2015-03-25T02:30:38.816Z,94476
2015-03-25T02:30:57.191Z,94473
2015-03-25T02:31:15.660Z,94462
2015-03-25T02:31:34.132Z,94467
2015-03-25T02:31:51.882Z,94467
2015-03-25T02:32:10.350Z,94470
2015-03-25T02:32:28.819Z,94473
2015-03-25T02:32:47.447Z,94465
2015-03-25T02:33:05.947Z,94470
2015-03-25T02:33:24.635Z,94462
2015-03-25T02:33:43.054Z,94467
2015-03-25T02:34:01.569Z,94468
2015-03-25T02:34:19.976Z,94462
2015-03-25T02:34:38.428Z,94465
2015-03-25T02:34:56.225Z,94465
2015-03-25T02:35:14.631Z,94463
2015-03-25T02:35:33.022Z,94465
2015-03-25T02:35:51.615Z,94465
2015-03-25T02:36:10.115Z,94463
2015-03-25T02:36:28.693Z,94460
2015-03-25T02:36:47.068Z,94451
2015-03-25T02:37:05.786Z,94463
2015-03-25T02:37:24.146Z,94454
2015-03-25T02:37:42.660Z,94466
2015-03-25T02:38:01.191Z,94454
2015-03-25T02:38:19.644Z,94457
2015-03-25T02:38:38.042Z,94457
2015-03-25T02:38:56.620Z,94460
2015-03-25T02:39:14.964Z,94452
2015-03-25T02:39:33.354Z,94455
2015-03-25T02:39:51.939Z,94450
2015-03-25T02:40:10.502Z,94461
2015-03-25T02:40:28.861Z,94453
2015-03-25T02:40:47.337Z,94458
2015-03-25T02:41:05.743Z,94464
2015-03-25T02:41:23.603Z,94461
2015-03-25T02:41:42.188Z,94461
2015-03-25T02:42:00.703Z,94447
2015-03-25T02:42:18.500Z,94453
2015-03-25T02:42:36.882Z,94461
2015-03-25T02:42:55.335Z,94458
2015-03-25T02:43:13.742Z,94447
2015-03-25T02:43:31.632Z,94458
2015-03-25T02:43:50.058Z,94455
2015-03-25T02:44:08.464Z,94452
2015-03-25T02:44:26.839Z,94444
2015-03-25T02:44:45.375Z,94453
2015-03-25T02:45:03.765Z,94444
2015-03-25T02:45:22.171Z,94447
2015-03-25T02:45:40.549Z,94453
2015-03-25T02:45:58.971Z,94439
2015-03-25T02:46:17.409Z,94450
2015-03-25T02:46:35.768Z,94450
2015-03-25T02:46:54.147Z,94450
2015-03-25T02:47:12.522Z,94447
2015-03-25T02:47:30.991Z,94450
2015-03-25T02:47:49.401Z,94444
2015-03-25T02:48:07.932Z,94447
2015-03-25T02:48:26.323Z,94453
2015-03-25T02:48:44.842Z,94444
2015-03-25T02:49:03.373Z,94453
2015-03-25T02:49:21.451Z,94453
2015-03-25T02:49:40.016Z,94456
2015-03-25T02:49:58.422Z,94450
2015-03-25T02:50:17.250Z,94456
2015-03-25T02:50:35.156Z,94450
2015-03-25T02:50:53.628Z,94447
2015-03-25T02:51:12.315Z,94456
2015-03-25T02:51:31.003Z,94456
2015-03-25T02:51:49.740Z,94456
2015-03-25T02:52:08.147Z,94456
2015-03-25T02:52:26.693Z,94444
2015-03-25T02:52:45.196Z,94447
2015-03-25T02:53:03.665Z,94450
2015-03-25T02:53:22.212Z,94450
2015-03-25T02:53:41.011Z,94456
2015-03-25T02:53:59.542Z,94453
2015-03-25T02:54:18.464Z,94456
2015-03-25T02:54:36.839Z,94439
2015-03-25T02:54:55.342Z,94453
2015-03-25T02:55:13.811Z,94445
2015-03-25T02:55:32.326Z,94450
2015-03-25T02:55:50.876Z,94461
2015-03-25T02:56:09.470Z,94456
2015-03-25T02:56:27.986Z,94453
2015-03-25T02:56:46.425Z,94450
2015-03-25T02:57:04.800Z,94456
2015-03-25T02:57:23.425Z,94453
2015-03-25T02:57:41.803Z,94447
2015-03-25T02:58:00.350Z,94456
2015-03-25T02:58:18.756Z,94450
2015-03-25T02:58:37.288Z,94456
2015-03-25T02:58:55.805Z,94444
2015-03-25T02:59:13.649Z,94447
2015-03-25T02:59:32.258Z,94456
2015-03-25T02:59:50.651Z,94456
2015-03-25T03:00:09.010Z,94448
2015-03-25T03:00:27.604Z,94451
2015-03-25T03:00:46.029Z,94453
2015-03-25T03:01:04.545Z,94456
2015-03-25T03:01:22.529Z,94456
2015-03-25T03:01:41.015Z,94454
2015-03-25T03:01:59.672Z,94453
2015-03-25T03:02:18.328Z,94451
2015-03-25T03:02:36.953Z,94456
2015-03-25T03:02:55.471Z,94448
2015-03-25T03:03:13.846Z,94439
2015-03-25T03:03:32.503Z,94450
2015-03-25T03:03:50.927Z,94456
2015-03-25T03:04:09.380Z,94450
2015-03-25T03:04:27.802Z,94456
2015-03-25T03:04:45.585Z,94456
2015-03-25T03:05:04.147Z,94450
2015-03-25T03:05:22.679Z,94456
2015-03-25T03:05:41.447Z,94456
2015-03-25T03:05:59.947Z,94462
2015-03-25T03:06:18.541Z,94456
2015-03-25T03:06:37.228Z,94470
2015-03-25T03:06:55.746Z,94461
2015-03-25T03:07:14.137Z,94451
2015-03-25T03:07:32.621Z,94456
2015-03-25T03:07:51.061Z,94451
2015-03-25T03:08:09.326Z,94459
2015-03-25T03:08:27.920Z,94456
2015-03-25T03:08:46.375Z,94462
2015-03-25T03:09:04.984Z,94459
2015-03-25T03:09:23.500Z,94459
2015-03-25T03:09:41.875Z,94459
2015-03-25T03:10:00.378Z,94450
2015-03-25T03:10:18.909Z,94456
2015-03-25T03:10:37.378Z,94456
2015-03-25T03:10:55.911Z,94453
2015-03-25T03:11:14.302Z,94459
2015-03-25T03:11:32.786Z,94447
2015-03-25T03:11:51.351Z,94453
2015-03-25T03:12:09.913Z,94456
2015-03-25T03:12:28.585Z,94455
2015-03-25T03:12:46.963Z,94470
2015-03-25T03:13:05.510Z,94461
2015-03-25T03:13:23.948Z,94464
2015-03-25T03:13:42.698Z,94456
2015-03-25T03:14:01.169Z,94447
2015-03-25T03:14:19.669Z,94456
2015-03-25T03:14:38.185Z,94450
2015-03-25T03:14:56.687Z,94461
2015-03-25T03:15:15.078Z,94459
2015-03-25T03:15:33.640Z,94467
2015-03-25T03:15:52.283Z,94456
2015-03-25T03:16:10.689Z,94453
2015-03-25T03:16:29.142Z,94459
2015-03-25T03:16:47.551Z,94456
2015-03-25T03:17:06.098Z,94453
2015-03-25T03:17:24.583Z,94453
2015-03-25T03:17:43.129Z,94461
2015-03-25T03:18:01.505Z,94447
2015-03-25T03:18:19.959Z,94445
2015-03-25T03:18:38.584Z,94453
2015-03-25T03:18:57.320Z,94450
2015-03-25T03:19:15.695Z,94451
2015-03-25T03:19:34.226Z,94451
2015-03-25T03:19:52.620Z,94442
2015-03-25T03:20:11.151Z,94448
2015-03-25T03:20:29.635Z,94453
2015-03-25T03:20:48.059Z,94454
2015-03-25T03:21:06.919Z,94451
2015-03-25T03:21:24.747Z,94459
2015-03-25T03:21:43.247Z,94456
2015-03-25T03:22:01.781Z,94454
2015-03-25T03:22:20.437Z,94451
2015-03-25T03:22:39.015Z,94454
2015-03-25T03:22:57.392Z,94451
2015-03-25T03:23:15.892Z,94454
2015-03-25T03:23:34.283Z,94454
2015-03-25T03:23:52.801Z,94454
2015-03-25T03:24:11.176Z,94454
2015-03-25T03:24:29.707Z,94448
2015-03-25T03:24:48.131Z,94454
2015-03-25T03:25:06.521Z,94454
2015-03-25T03:25:24.990Z,94456
2015-03-25T03:25:43.537Z,94454
2015-03-25T03:26:01.962Z,94453
2015-03-25T03:26:20.353Z,94451
2015-03-25T03:26:38.243Z,94451
2015-03-25T03:26:56.667Z,94453
2015-03-25T03:27:15.261Z,94456
2015-03-25T03:27:33.776Z,94462
2015-03-25T03:27:52.311Z,94462
2015-03-25T03:28:10.811Z,94462
2015-03-25T03:28:29.201Z,94456
2015-03-25T03:28:47.750Z,94445
2015-03-25T03:29:06.266Z,94456
2015-03-25T03:29:24.672Z,94456
2015-03-25T03:29:43.266Z,94462
2015-03-25T03:30:01.705Z,94459
2015-03-25T03:30:20.112Z,94453
2015-03-25T03:30:38.502Z,94450
2015-03-25T03:30:57.067Z,94453
2015-03-25T03:31:15.535Z,94459
2015-03-25T03:31:34.160Z,94453
2015-03-25T03:31:52.601Z,94450
2015-03-25T03:32:11.023Z,94456
2015-03-25T03:32:30.257Z,94447
2015-03-25T03:32:48.650Z,94453
2015-03-25T03:33:06.462Z,94450
2015-03-25T03:33:25.056Z,94453
2015-03-25T03:33:43.447Z,94456
2015-03-25T03:34:02.012Z,94453
2015-03-25T03:34:20.403Z,94448
2015-03-25T03:34:38.762Z,94454
2015-03-25T03:34:57.216Z,94459
2015-03-25T03:35:15.576Z,94451
2015-03-25T03:35:33.935Z,94457
2015-03-25T03:35:52.563Z,94457
2015-03-25T03:36:11.001Z,94443
2015-03-25T03:36:29.501Z,94451
2015-03-25T03:36:47.922Z,94446
2015-03-25T03:37:06.316Z,94451
2015-03-25T03:37:24.675Z,94451
2015-03-25T03:37:43.316Z,94445
2015-03-25T03:38:01.692Z,94448
2015-03-25T03:38:20.255Z,94440
2015-03-25T03:38:38.614Z,94448
2015-03-25T03:38:57.133Z,94448
2015-03-25T03:39:15.492Z,94446
2015-03-25T03:39:33.851Z,94443
2015-03-25T03:39:52.213Z,94445
2015-03-25T03:40:10.572Z,94443
2015-03-25T03:40:28.947Z,94443
2015-03-25T03:40:46.650Z,94445
2015-03-25T03:41:05.230Z,94440
2015-03-25T03:41:23.652Z,94443
2015-03-25T03:41:42.043Z,94445
2015-03-25T03:42:00.421Z,94443
2015-03-25T03:42:18.796Z,94446
2015-03-25T03:42:37.171Z,94451
2015-03-25T03:42:55.517Z,94451
2015-03-25T03:43:13.892Z,94454
2015-03-25T03:43:32.298Z,94446
2015-03-25T03:43:50.657Z,94440
2015-03-25T03:44:09.050Z,94440
2015-03-25T03:44:27.597Z,94454
2015-03-25T03:44:45.972Z,94443
2015-03-25T03:45:04.318Z,94454
2015-03-25T03:45:22.787Z,94451
2015-03-25T03:45:41.162Z,94446
2015-03-25T03:45:59.524Z,94448
2015-03-25T03:46:18.117Z,94440
2015-03-25T03:46:36.492Z,94440
2015-03-25T03:46:54.899Z,94443
2015-03-25T03:47:13.277Z,94437
2015-03-25T03:47:31.652Z,94435
2015-03-25T03:47:50.011Z,94440
2015-03-25T03:48:08.529Z,94443
2015-03-25T03:48:26.888Z,94446
2015-03-25T03:48:45.294Z,94441
2015-03-25T03:49:03.906Z,94452
2015-03-25T03:49:22.406Z,94444
2015-03-25T03:49:40.781Z,94446
2015-03-25T03:49:58.501Z,94446
2015-03-25T03:50:16.970Z,94438
2015-03-25T03:50:35.423Z,94446
2015-03-25T03:50:54.001Z,94446
2015-03-25T03:51:12.129Z,94449
2015-03-25T03:51:30.489Z,94432
2015-03-25T03:51:48.879Z,94441
2015-03-25T03:52:07.241Z,94444
2015-03-25T03:52:25.600Z,94441
2015-03-25T03:52:43.959Z,94443
2015-03-25T03:53:02.352Z,94446
2015-03-25T03:53:20.727Z,94446
2015-03-25T03:53:39.243Z,94443
2015-03-25T03:53:57.790Z,94432
2015-03-25T03:54:16.168Z,94440
2015-03-25T03:54:34.558Z,94449
2015-03-25T03:54:53.027Z,94437
2015-03-25T03:55:11.482Z,94435
2015-03-25T03:55:29.873Z,94440
2015-03-25T03:55:48.248Z,94443
2015-03-25T03:56:06.704Z,94446
2015-03-25T03:56:25.079Z,94440
2015-03-25T03:56:43.454Z,94448
2015-03-25T03:57:01.971Z,94451
2015-03-25T03:57:20.393Z,94443
2015-03-25T03:57:38.768Z,94445